Terminal Aerodrome Forecast
Issued by NWS

Home | Current Version | Previous Version | Text Only | Print | Product List | Glossary Off
Versions: 1 2 3 4 5 6 7 8 9 10 11 12 13 14 15 16 17 18 19 20 21 22 23 24 25 26

908
FTUS43 KTOP 281005 AAA
TAFFOE
TAF AMD
KFOE 281005Z 2810/2906 09012KT 4SM SHRA BR VCTS SCT017 OVC030CB
     FM281100 11011KT P6SM VCSH OVC011
     FM281700 17008KT P6SM OVC015
     FM282100 VRB05KT P6SM BKN035
     FM290100 02009KT P6SM OVC019=

USA.gov is the U.S. government's official web portal to all federal, state and local government web resources and services.